This is the latest recevied weather packets stored in our database for station/object SR2WXM. If no packets are shown the sender has not sent any weather packets the latest 10 day(s).
| Time | Temp. | Humidity | Pressure | Rain* | Wind** | Luminosity | Snow |
|---|---|---|---|---|---|---|---|
| 1777539604 | 12.78° C | 32% | 1028.4 hPa | 0 mm | - | - | - |
| 1777538703 | 12.78° C | 34% | 1028.7 hPa | 0 mm | - | - | - |
| 1777537803 | 11.67° C | 37% | 1029.1 hPa | 0 mm | - | - | - |
| 1777536902 | 11.67° C | 39% | 1029.1 hPa | 0 mm | - | - | - |
| 1777536033 | 10.56° C | 39% | 1029.1 hPa | 0 mm | - | - | - |
| 1777535102 | 10° C | 40% | 1029.1 hPa | 0 mm | - | - | - |
| 1777534201 | 10° C | 41% | 1029.1 hPa | 0 mm | - | - | - |
| 1777533302 | 8.89° C | 43% | 1029.1 hPa | 0 mm | - | - | - |
| 1777532401 | 8.89° C | 42% | 1029.1 hPa | 0 mm | - | - | - |
| 1777531502 | 8.89° C | 42% | 1029.1 hPa | 0 mm | - | - | - |
| 1777530602 | 8.89° C | 46% | 1029.1 hPa | 0 mm | - | - | - |
| 1777529703 | 7.78° C | 45% | 1029.1 hPa | 0 mm | - | - | - |
| 1777528803 | 6.67° C | 47% | 1028.7 hPa | 0 mm | - | - | - |
| 1777527903 | 5.56° C | 58% | 1028.7 hPa | 0 mm | - | - | - |
| 1777527003 | 3.89° C | 70% | 1028.7 hPa | 0 mm | - | - | - |
| 1777526102 | 1.67° C | 81% | 1029.1 hPa | 0 mm | - | - | - |
| 1777525203 | 0.56° C | 87% | 1028.7 hPa | 0 mm | - | - | - |
| 1777524303 | 0° C | 91% | 1029.1 hPa | 0 mm | - | - | - |
| 1777523404 | -1.11° C | 93% | 1029.1 hPa | 0 mm | - | - | - |
| 1777522502 | -2.22° C | 94% | 1029.1 hPa | 0 mm | - | - | - |
| 1777521602 | -3.33° C | 94% | 1029.1 hPa | 0 mm | - | - | - |
| 1777520702 | -3.33° C | 93% | 1028.7 hPa | 0 mm | - | - | - |
| 1777519802 | -3.33° C | 96% | 1028.7 hPa | 0 mm | - | - | - |
| 1777518902 | -4.44° C | 94% | 1029.1 hPa | 0 mm | - | - | - |
| 1777518004 | -4.44° C | 93% | 1029.1 hPa | 0 mm | - | - | - |
* Rain latest hour (hover to see other rain measurements)
** Current wind speed in m/s (hover to see current wind gust speed)